sensor_id;sensor_type;location;lat;lon;timestamp;pressure;altitude;pressure_sealevel;temperature;humidity
75013;BME280;63567;49.956;20.130;2023-03-24T00:01:53;96608.16;;;14.27;49.07
75013;BME280;63567;49.956;20.130;2023-03-24T00:04:20;96616.75;;;14.22;49.15
75013;BME280;63567;49.956;20.130;2023-03-24T00:06:46;96606.63;;;14.19;49.15
75013;BME280;63567;49.956;20.130;2023-03-24T00:09:13;96616.03;;;14.15;49.67
75013;BME280;63567;49.956;20.130;2023-03-24T00:11:39;96614.84;;;14.11;49.57
75013;BME280;63567;49.956;20.130;2023-03-24T00:14:04;96604.06;;;14.12;49.50
75013;BME280;63567;49.956;20.130;2023-03-24T00:16:29;96601.41;;;14.12;49.46
75013;BME280;63567;49.956;20.130;2023-03-24T00:18:55;96605.44;;;14.15;49.25
75013;BME280;63567;49.956;20.130;2023-03-24T00:21:23;96603.00;;;14.13;49.39
75013;BME280;63567;49.956;20.130;2023-03-24T00:23:49;96601.41;;;14.12;49.65
75013;BME280;63567;49.956;20.130;2023-03-24T00:26:15;96608.75;;;14.10;49.73
75013;BME280;63567;49.956;20.130;2023-03-24T00:28:43;96603.47;;;14.10;49.50
75013;BME280;63567;49.956;20.130;2023-03-24T00:31:10;96607.97;;;14.10;49.96
75013;BME280;63567;49.956;20.130;2023-03-24T00:33:36;96602.50;;;14.05;49.70
75013;BME280;63567;49.956;20.130;2023-03-24T00:36:06;96601.47;;;14.06;49.94
75013;BME280;63567;49.956;20.130;2023-03-24T00:38:33;96599.84;;;14.05;49.82
75013;BME280;63567;49.956;20.130;2023-03-24T00:40:59;96598.91;;;13.99;50.08
75013;BME280;63567;49.956;20.130;2023-03-24T00:43:25;96593.22;;;13.95;50.11
75013;BME280;63567;49.956;20.130;2023-03-24T00:46:03;96588.97;;;13.94;50.16
75013;BME280;63567;49.956;20.130;2023-03-24T00:48:30;96590.78;;;13.94;50.07
75013;BME280;63567;49.956;20.130;2023-03-24T00:50:56;96594.47;;;13.93;50.29
75013;BME280;63567;49.956;20.130;2023-03-24T00:53:21;96591.47;;;13.89;50.74
75013;BME280;63567;49.956;20.130;2023-03-24T00:55:54;96595.56;;;13.85;50.52
75013;BME280;63567;49.956;20.130;2023-03-24T00:58:20;96593.75;;;13.86;50.56
75013;BME280;63567;49.956;20.130;2023-03-24T01:00:47;96593.97;;;13.84;50.74
75013;BME280;63567;49.956;20.130;2023-03-24T01:03:13;96590.94;;;13.81;50.93
75013;BME280;63567;49.956;20.130;2023-03-24T01:05:40;96594.63;;;13.80;50.94
75013;BME280;63567;49.956;20.130;2023-03-24T01:08:07;96589.16;;;13.74;50.83
75013;BME280;63567;49.956;20.130;2023-03-24T01:10:35;96586.97;;;13.71;51.12
75013;BME280;63567;49.956;20.130;2023-03-24T01:13:07;96585.56;;;13.69;51.28
75013;BME280;63567;49.956;20.130;2023-03-24T01:15:33;96585.34;;;13.70;51.11
75013;BME280;63567;49.956;20.130;2023-03-24T01:17:58;96581.28;;;13.68;51.28
75013;BME280;63567;49.956;20.130;2023-03-24T01:20:26;96577.69;;;13.62;51.44
75013;BME280;63567;49.956;20.130;2023-03-24T01:22:56;96585.84;;;13.61;51.34
75013;BME280;63567;49.956;20.130;2023-03-24T01:25:22;96587.25;;;13.63;51.98
75013;BME280;63567;49.956;20.130;2023-03-24T01:27:49;96583.41;;;13.59;51.51
75013;BME280;63567;49.956;20.130;2023-03-24T01:30:16;96587.69;;;13.60;51.64
75013;BME280;63567;49.956;20.130;2023-03-24T01:32:42;96583.25;;;13.54;51.45
75013;BME280;63567;49.956;20.130;2023-03-24T01:35:09;96575.53;;;13.52;51.88
75013;BME280;63567;49.956;20.130;2023-03-24T01:37:35;96582.06;;;13.50;52.10
75013;BME280;63567;49.956;20.130;2023-03-24T01:40:01;96575.22;;;13.42;52.39
75013;BME280;63567;49.956;20.130;2023-03-24T01:42:27;96567.34;;;13.35;52.57
75013;BME280;63567;49.956;20.130;2023-03-24T01:45:00;96573.88;;;13.33;52.55
75013;BME280;63567;49.956;20.130;2023-03-24T01:47:26;96567.19;;;13.30;52.89
75013;BME280;63567;49.956;20.130;2023-03-24T01:49:58;96568.41;;;13.28;53.06
75013;BME280;63567;49.956;20.130;2023-03-24T01:52:28;96564.53;;;13.30;53.03
75013;BME280;63567;49.956;20.130;2023-03-24T01:55:13;96565.75;;;13.28;52.99
75013;BME280;63567;49.956;20.130;2023-03-24T01:57:48;96568.78;;;13.31;52.87
75013;BME280;63567;49.956;20.130;2023-03-24T02:00:17;96562.31;;;13.27;53.17
75013;BME280;63567;49.956;20.130;2023-03-24T02:02:46;96565.34;;;13.31;52.94
75013;BME280;63567;49.956;20.130;2023-03-24T02:05:14;96561.91;;;13.30;52.92
75013;BME280;63567;49.956;20.130;2023-03-24T02:10:39;96556.59;;;13.30;52.77
75013;BME280;63567;49.956;20.130;2023-03-24T02:13:05;96555.34;;;13.33;52.79
75013;BME280;63567;49.956;20.130;2023-03-24T02:15:38;96549.88;;;13.34;53.14
75013;BME280;63567;49.956;20.130;2023-03-24T02:18:12;96541.91;;;13.34;53.13
75013;BME280;63567;49.956;20.130;2023-03-24T02:21:03;96549.66;;;13.36;53.29
75013;BME280;63567;49.956;20.130;2023-03-24T02:23:55;96547.59;;;13.38;53.22
75013;BME280;63567;49.956;20.130;2023-03-24T02:26:41;96551.84;;;13.39;53.67
75013;BME280;63567;49.956;20.130;2023-03-24T02:40:28;96547.53;;;13.45;53.24
75013;BME280;63567;49.956;20.130;2023-03-24T02:43:03;96539.75;;;13.50;53.03
75013;BME280;63567;49.956;20.130;2023-03-24T02:45:43;96542.97;;;13.52;53.38
75013;BME280;63567;49.956;20.130;2023-03-24T02:56:51;96527.75;;;13.22;53.91
75013;BME280;63567;49.956;20.130;2023-03-24T02:59:29;96530.66;;;13.14;54.15
75013;BME280;63567;49.956;20.130;2023-03-24T03:02:00;96527.00;;;13.15;53.83
75013;BME280;63567;49.956;20.130;2023-03-24T03:04:33;96533.16;;;13.09;54.00
75013;BME280;63567;49.956;20.130;2023-03-24T03:07:04;96516.31;;;13.03;54.30
75013;BME280;63567;49.956;20.130;2023-03-24T03:09:36;96525.72;;;12.99;54.81
75013;BME280;63567;49.956;20.130;2023-03-24T03:12:04;96527.97;;;12.95;54.85
75013;BME280;63567;49.956;20.130;2023-03-24T03:14:54;96525.53;;;12.94;54.81
75013;BME280;63567;49.956;20.130;2023-03-24T03:17:28;96525.94;;;12.98;54.89
75013;BME280;63567;49.956;20.130;2023-03-24T03:19:58;96515.97;;;13.00;54.65
75013;BME280;63567;49.956;20.130;2023-03-24T03:22:31;96510.88;;;12.98;55.00
75013;BME280;63567;49.956;20.130;2023-03-24T03:25:00;96508.03;;;13.00;54.98
75013;BME280;63567;49.956;20.130;2023-03-24T03:27:34;96505.38;;;13.00;55.11
75013;BME280;63567;49.956;20.130;2023-03-24T03:30:15;96509.22;;;13.04;54.79
75013;BME280;63567;49.956;20.130;2023-03-24T03:32:47;96506.31;;;13.05;54.97
75013;BME280;63567;49.956;20.130;2023-03-24T03:35:37;96517.94;;;13.04;54.78
75013;BME280;63567;49.956;20.130;2023-03-24T03:38:19;96513.09;;;13.01;55.19
75013;BME280;63567;49.956;20.130;2023-03-24T03:40:57;96522.91;;;12.94;55.76
75013;BME280;63567;49.956;20.130;2023-03-24T03:43:25;96521.91;;;12.95;55.69
75013;BME280;63567;49.956;20.130;2023-03-24T03:45:52;96515.22;;;12.92;55.80
75013;BME280;63567;49.956;20.130;2023-03-24T03:48:18;96516.06;;;12.86;56.06
75013;BME280;63567;49.956;20.130;2023-03-24T03:50:44;96513.84;;;12.83;56.21
75013;BME280;63567;49.956;20.130;2023-03-24T03:53:12;96517.31;;;12.84;55.86
75013;BME280;63567;49.956;20.130;2023-03-24T03:55:40;96515.47;;;12.84;56.02
75013;BME280;63567;49.956;20.130;2023-03-24T03:58:06;96516.22;;;12.91;56.16
75013;BME280;63567;49.956;20.130;2023-03-24T04:00:33;96514.38;;;12.92;55.77
75013;BME280;63567;49.956;20.130;2023-03-24T04:05:52;96504.19;;;12.95;55.67
75013;BME280;63567;49.956;20.130;2023-03-24T04:08:27;96499.06;;;13.01;55.45
75013;BME280;63567;49.956;20.130;2023-03-24T04:25:27;96502.94;;;12.98;55.25
75013;BME280;63567;49.956;20.130;2023-03-24T04:30:39;96499.44;;;13.04;55.18
75013;BME280;63567;49.956;20.130;2023-03-24T04:33:57;96500.03;;;13.06;55.11
75013;BME280;63567;49.956;20.130;2023-03-24T04:36:05;96506.97;;;13.01;55.27
75013;BME280;63567;49.956;20.130;2023-03-24T04:38:44;96504.34;;;13.01;55.60
75013;BME280;63567;49.956;20.130;2023-03-24T04:41:13;96502.94;;;12.98;55.27
75013;BME280;63567;49.956;20.130;2023-03-24T04:43:42;96495.41;;;13.02;55.15
75013;BME280;63567;49.956;20.130;2023-03-24T04:46:08;96495.59;;;13.00;55.06
75013;BME280;63567;49.956;20.130;2023-03-24T04:48:34;96498.44;;;12.99;55.57
75013;BME280;63567;49.956;20.130;2023-03-24T04:51:01;96500.50;;;12.97;55.91
75013;BME280;63567;49.956;20.130;2023-03-24T04:53:27;96499.69;;;12.96;56.10
75013;BME280;63567;49.956;20.130;2023-03-24T04:58:40;96502.00;;;12.92;56.67
75013;BME280;63567;49.956;20.130;2023-03-24T05:01:06;96506.69;;;12.90;57.23
75013;BME280;63567;49.956;20.130;2023-03-24T05:03:33;96508.94;;;12.87;57.05
75013;BME280;63567;49.956;20.130;2023-03-24T05:06:02;96503.66;;;12.87;56.91
75013;BME280;63567;49.956;20.130;2023-03-24T05:08:30;96512.59;;;12.86;57.59
75013;BME280;63567;49.956;20.130;2023-03-24T05:10:56;96510.00;;;12.79;57.75
75013;BME280;63567;49.956;20.130;2023-03-24T05:13:21;96518.97;;;12.78;57.97
75013;BME280;63567;49.956;20.130;2023-03-24T05:15:46;96527.09;;;12.77;58.78
75013;BME280;63567;49.956;20.130;2023-03-24T05:18:13;96525.91;;;12.72;58.62
75013;BME280;63567;49.956;20.130;2023-03-24T05:20:38;96521.88;;;12.70;58.56
75013;BME280;63567;49.956;20.130;2023-03-24T05:23:03;96524.50;;;12.70;58.64
75013;BME280;63567;49.956;20.130;2023-03-24T05:25:29;96531.44;;;12.71;58.39
75013;BME280;63567;49.956;20.130;2023-03-24T05:27:55;96531.44;;;12.71;58.73
75013;BME280;63567;49.956;20.130;2023-03-24T05:30:20;96524.94;;;12.67;58.50
75013;BME280;63567;49.956;20.130;2023-03-24T05:32:46;96528.41;;;12.67;59.00
75013;BME280;63567;49.956;20.130;2023-03-24T05:35:11;96529.41;;;12.66;59.12
75013;BME280;63567;49.956;20.130;2023-03-24T05:37:36;96527.78;;;12.65;58.78
75013;BME280;63567;49.956;20.130;2023-03-24T05:40:02;96526.75;;;12.66;59.14
75013;BME280;63567;49.956;20.130;2023-03-24T05:42:27;96523.16;;;12.61;59.42
75013;BME280;63567;49.956;20.130;2023-03-24T05:44:52;96527.25;;;12.57;59.64
75013;BME280;63567;49.956;20.130;2023-03-24T05:47:17;96526.25;;;12.51;60.20
75013;BME280;63567;49.956;20.130;2023-03-24T05:49:46;96521.19;;;12.49;60.59
75013;BME280;63567;49.956;20.130;2023-03-24T05:52:12;96522.41;;;12.47;60.76
75013;BME280;63567;49.956;20.130;2023-03-24T05:54:40;96524.69;;;12.43;60.92
75013;BME280;63567;49.956;20.130;2023-03-24T05:57:05;96528.94;;;12.44;61.12
75013;BME280;63567;49.956;20.130;2023-03-24T05:59:33;96527.13;;;12.38;61.81
75013;BME280;63567;49.956;20.130;2023-03-24T06:01:58;96537.69;;;12.38;61.75
75013;BME280;63567;49.956;20.130;2023-03-24T06:04:24;96536.09;;;12.37;62.12
75013;BME280;63567;49.956;20.130;2023-03-24T06:06:53;96535.50;;;12.35;62.49
75013;BME280;63567;49.956;20.130;2023-03-24T06:09:20;96533.28;;;12.32;62.78
75013;BME280;63567;49.956;20.130;2023-03-24T06:11:46;96535.09;;;12.31;62.44
75013;BME280;63567;49.956;20.130;2023-03-24T06:14:11;96538.75;;;12.37;62.85
75013;BME280;63567;49.956;20.130;2023-03-24T06:16:36;96537.69;;;12.38;62.84
75013;BME280;63567;49.956;20.130;2023-03-24T06:19:05;96538.53;;;12.39;63.28
75013;BME280;63567;49.956;20.130;2023-03-24T06:21:31;96544.63;;;12.39;63.69
75013;BME280;63567;49.956;20.130;2023-03-24T06:23:57;96544.63;;;12.39;63.65
75013;BME280;63567;49.956;20.130;2023-03-24T06:26:23;96544.63;;;12.39;63.70
75013;BME280;63567;49.956;20.130;2023-03-24T06:28:48;96536.53;;;12.34;64.55
75013;BME280;63567;49.956;20.130;2023-03-24T06:31:16;96547.50;;;12.31;64.74
75013;BME280;63567;49.956;20.130;2023-03-24T06:33:44;96550.78;;;12.26;65.38
75013;BME280;63567;49.956;20.130;2023-03-24T06:36:11;96546.13;;;12.22;66.17
75013;BME280;63567;49.956;20.130;2023-03-24T06:38:37;96548.78;;;12.22;66.17
75013;BME280;63567;49.956;20.130;2023-03-24T06:41:03;96549.41;;;12.17;66.79
75013;BME280;63567;49.956;20.130;2023-03-24T06:43:29;96555.69;;;12.16;67.63
75013;BME280;63567;49.956;20.130;2023-03-24T06:45:54;96552.69;;;12.12;68.06
75013;BME280;63567;49.956;20.130;2023-03-24T06:48:20;96553.31;;;12.08;68.14
75013;BME280;63567;49.956;20.130;2023-03-24T06:50:45;96548.22;;;12.06;68.43
75013;BME280;63567;49.956;20.130;2023-03-24T06:53:11;96546.63;;;11.99;68.93
75013;BME280;63567;49.956;20.130;2023-03-24T06:55:36;96543.81;;;11.94;69.58
75013;BME280;63567;49.956;20.130;2023-03-24T06:58:01;96542.41;;;11.91;70.21
75013;BME280;63567;49.956;20.130;2023-03-24T07:00:27;96537.13;;;11.91;70.85
75013;BME280;63567;49.956;20.130;2023-03-24T07:02:53;96533.09;;;11.88;71.10
75013;BME280;63567;49.956;20.130;2023-03-24T07:05:18;96530.59;;;11.87;71.79
75013;BME280;63567;49.956;20.130;2023-03-24T07:07:44;96528.78;;;11.87;72.25
75013;BME280;63567;49.956;20.130;2023-03-24T07:10:10;96538.38;;;11.88;72.02
75013;BME280;63567;49.956;20.130;2023-03-24T07:12:37;96529.59;;;11.88;72.79
75013;BME280;63567;49.956;20.130;2023-03-24T07:15:02;96530.81;;;11.92;72.51
75013;BME280;63567;49.956;20.130;2023-03-24T07:17:28;96536.06;;;11.99;72.86
75013;BME280;63567;49.956;20.130;2023-03-24T07:19:54;96525.31;;;12.00;72.21
75013;BME280;63567;49.956;20.130;2023-03-24T07:22:19;96528.91;;;12.12;72.53
75013;BME280;63567;49.956;20.130;2023-03-24T07:24:44;96530.09;;;12.23;72.04
75013;BME280;63567;49.956;20.130;2023-03-24T07:27:10;96526.38;;;12.31;71.72
75013;BME280;63567;49.956;20.130;2023-03-24T07:29:35;96531.63;;;12.38;71.84
75013;BME280;63567;49.956;20.130;2023-03-24T07:32:01;96530.31;;;12.53;71.11
75013;BME280;63567;49.956;20.130;2023-03-24T07:34:27;96523.69;;;12.69;70.92
75013;BME280;63567;49.956;20.130;2023-03-24T07:36:53;96527.28;;;12.82;70.81
75013;BME280;63567;49.956;20.130;2023-03-24T07:39:19;96521.44;;;12.98;70.01
75013;BME280;63567;49.956;20.130;2023-03-24T07:41:45;96524.22;;;13.10;69.87
75013;BME280;63567;49.956;20.130;2023-03-24T07:44:11;96516.56;;;13.20;69.25
75013;BME280;63567;49.956;20.130;2023-03-24T07:46:36;96519.78;;;13.29;68.05
75013;BME280;63567;49.956;20.130;2023-03-24T07:49:02;96521.34;;;13.37;68.24
75013;BME280;63567;49.956;20.130;2023-03-24T07:51:28;96519.03;;;13.47;68.07
75013;BME280;63567;49.956;20.130;2023-03-24T07:53:53;96511.34;;;13.57;66.41
75013;BME280;63567;49.956;20.130;2023-03-24T07:56:19;96508.22;;;13.67;66.82
75013;BME280;63567;49.956;20.130;2023-03-24T07:58:44;96507.41;;;13.85;67.22
75013;BME280;63567;49.956;20.130;2023-03-24T08:01:10;96500.66;;;14.01;66.45
75013;BME280;63567;49.956;20.130;2023-03-24T08:03:36;96500.84;;;14.06;65.72
75013;BME280;63567;49.956;20.130;2023-03-24T08:06:02;96504.09;;;14.20;64.61
75013;BME280;63567;49.956;20.130;2023-03-24T08:08:29;96497.25;;;14.30;63.90
75013;BME280;63567;49.956;20.130;2023-03-24T08:10:54;96494.97;;;14.46;63.53
75013;BME280;63567;49.956;20.130;2023-03-24T08:13:19;96482.13;;;14.61;63.82
75013;BME280;63567;49.956;20.130;2023-03-24T08:15:44;96488.88;;;14.87;62.71
75013;BME280;63567;49.956;20.130;2023-03-24T08:18:10;96479.44;;;15.03;61.89
75013;BME280;63567;49.956;20.130;2023-03-24T08:20:35;96480.94;;;15.11;61.30
75013;BME280;63567;49.956;20.130;2023-03-24T08:23:01;96480.13;;;15.22;61.59
75013;BME280;63567;49.956;20.130;2023-03-24T08:25:29;96477.47;;;15.34;58.93
75013;BME280;63567;49.956;20.130;2023-03-24T08:27:54;96472.88;;;15.29;59.51
75013;BME280;63567;49.956;20.130;2023-03-24T08:30:23;96471.91;;;15.47;58.72
75013;BME280;63567;49.956;20.130;2023-03-24T08:32:52;96461.25;;;15.71;58.83
75013;BME280;63567;49.956;20.130;2023-03-24T08:35:19;96452.59;;;15.75;58.13
75013;BME280;63567;49.956;20.130;2023-03-24T08:37:45;96452.25;;;15.84;57.08
75013;BME280;63567;49.956;20.130;2023-03-24T08:40:14;96447.66;;;15.79;56.17
75013;BME280;63567;49.956;20.130;2023-03-24T08:42:43;96445.22;;;16.06;53.51
75013;BME280;63567;49.956;20.130;2023-03-24T08:45:10;96439.25;;;16.45;54.78
75013;BME280;63567;49.956;20.130;2023-03-24T08:47:36;96430.34;;;16.68;52.50
75013;BME280;63567;49.956;20.130;2023-03-24T08:50:01;96429.06;;;16.87;53.15
75013;BME280;63567;49.956;20.130;2023-03-24T08:52:26;96427.84;;;16.95;52.64
75013;BME280;63567;49.956;20.130;2023-03-24T08:54:52;96430.34;;;17.01;51.85
75013;BME280;63567;49.956;20.130;2023-03-24T08:57:17;96415.88;;;17.14;51.29
75013;BME280;63567;49.956;20.130;2023-03-24T08:59:42;96427.47;;;17.25;51.59
75013;BME280;63567;49.956;20.130;2023-03-24T09:02:10;96426.88;;;17.40;50.38
75013;BME280;63567;49.956;20.130;2023-03-24T09:04:36;96419.81;;;17.29;50.95
75013;BME280;63567;49.956;20.130;2023-03-24T09:07:01;96412.69;;;16.95;50.44
75013;BME280;63567;49.956;20.130;2023-03-24T09:09:28;96407.13;;;16.97;50.52
75013;BME280;63567;49.956;20.130;2023-03-24T09:11:53;96415.47;;;17.22;50.21
75013;BME280;63567;49.956;20.130;2023-03-24T09:14:19;96405.78;;;17.16;50.39
75013;BME280;63567;49.956;20.130;2023-03-24T09:16:46;96406.94;;;17.03;50.20
75013;BME280;63567;49.956;20.130;2023-03-24T09:19:12;96402.59;;;16.97;51.22
75013;BME280;63567;49.956;20.130;2023-03-24T09:21:38;96395.84;;;16.90;51.34
75013;BME280;63567;49.956;20.130;2023-03-24T09:24:05;96393.00;;;16.79;50.91
75013;BME280;63567;49.956;20.130;2023-03-24T09:26:31;96393.97;;;16.73;51.02
75013;BME280;63567;49.956;20.130;2023-03-24T09:28:58;96386.22;;;16.72;51.20
75013;BME280;63567;49.956;20.130;2023-03-24T09:31:23;96379.13;;;16.77;50.68
75013;BME280;63567;49.956;20.130;2023-03-24T09:33:48;96380.91;;;16.72;50.07
75013;BME280;63567;49.956;20.130;2023-03-24T09:36:13;96379.38;;;16.76;51.08
75013;BME280;63567;49.956;20.130;2023-03-24T09:38:39;96384.56;;;16.82;50.19
75013;BME280;63567;49.956;20.130;2023-03-24T09:41:14;96375.34;;;16.73;49.63
75013;BME280;63567;49.956;20.130;2023-03-24T09:43:45;96376.72;;;16.76;48.83
75013;BME280;63567;49.956;20.130;2023-03-24T09:46:24;96359.47;;;16.78;50.63
75013;BME280;63567;49.956;20.130;2023-03-24T09:48:54;96364.09;;;17.22;50.06
75013;BME280;63567;49.956;20.130;2023-03-24T09:54:21;96357.94;;;17.88;46.57
75013;BME280;63567;49.956;20.130;2023-03-24T09:56:51;96358.34;;;17.79;46.17
75013;BME280;63567;49.956;20.130;2023-03-24T09:59:23;96361.72;;;17.70;47.64
75013;BME280;63567;49.956;20.130;2023-03-24T10:01:53;96353.38;;;17.61;46.16
75013;BME280;63567;49.956;20.130;2023-03-24T10:04:23;96350.97;;;17.37;46.86
75013;BME280;63567;49.956;20.130;2023-03-24T10:06:53;96357.75;;;17.28;47.96
75013;BME280;63567;49.956;20.130;2023-03-24T10:09:30;96348.41;;;17.25;47.30
75013;BME280;63567;49.956;20.130;2023-03-24T10:23:37;96339.63;;;18.66;43.18
75013;BME280;63567;49.956;20.130;2023-03-24T10:31:31;96316.69;;;19.96;39.65
75013;BME280;63567;49.956;20.130;2023-03-24T10:33:56;96322.34;;;20.15;38.95
75013;BME280;63567;49.956;20.130;2023-03-24T10:36:22;96314.28;;;20.36;40.62
75013;BME280;63567;49.956;20.130;2023-03-24T10:38:49;96312.69;;;20.70;37.88
75013;BME280;63567;49.956;20.130;2023-03-24T10:41:26;96310.00;;;20.70;37.64
75013;BME280;63567;49.956;20.130;2023-03-24T10:43:55;96301.63;;;20.98;38.09
75013;BME280;63567;49.956;20.130;2023-03-24T10:46:24;96304.78;;;21.10;37.39
75013;BME280;63567;49.956;20.130;2023-03-24T10:48:53;96301.63;;;21.08;37.33
75013;BME280;63567;49.956;20.130;2023-03-24T10:51:25;96303.28;;;20.88;37.41
75013;BME280;63567;49.956;20.130;2023-03-24T10:54:08;96297.69;;;20.64;37.65
75013;BME280;63567;49.956;20.130;2023-03-24T10:57:02;96292.84;;;20.82;37.25
75013;BME280;63567;49.956;20.130;2023-03-24T10:59:34;96294.09;;;21.05;36.58
75013;BME280;63567;49.956;20.130;2023-03-24T11:04:44;96295.13;;;21.19;37.16
75013;BME280;63567;49.956;20.130;2023-03-24T11:07:19;96285.72;;;21.32;36.72
75013;BME280;63567;49.956;20.130;2023-03-24T11:09:57;96280.00;;;21.54;36.25
75013;BME280;63567;49.956;20.130;2023-03-24T11:12:33;96286.41;;;21.58;35.97
75013;BME280;63567;49.956;20.130;2023-03-24T11:15:28;96266.84;;;21.52;36.35
75013;BME280;63567;49.956;20.130;2023-03-24T11:18:19;96270.97;;;21.79;35.78
75013;BME280;63567;49.956;20.130;2023-03-24T11:20:51;96272.38;;;21.17;35.02
75013;BME280;63567;49.956;20.130;2023-03-24T11:23:20;96267.31;;;21.05;37.28
75013;BME280;63567;49.956;20.130;2023-03-24T11:26:22;96252.34;;;21.04;37.10
75013;BME280;63567;49.956;20.130;2023-03-24T11:28:52;96253.16;;;20.99;36.46
75013;BME280;63567;49.956;20.130;2023-03-24T11:31:26;96247.75;;;21.15;36.34
75013;BME280;63567;49.956;20.130;2023-03-24T11:34:15;96237.44;;;21.37;35.50
75013;BME280;63567;49.956;20.130;2023-03-24T11:39:29;96239.47;;;21.56;35.00
75013;BME280;63567;49.956;20.130;2023-03-24T11:44:44;96232.06;;;21.37;35.40
75013;BME280;63567;49.956;20.130;2023-03-24T11:47:15;96234.13;;;21.56;35.64
75013;BME280;63567;49.956;20.130;2023-03-24T11:52:52;96230.00;;;21.73;36.09
75013;BME280;63567;49.956;20.130;2023-03-24T11:55:39;96230.06;;;21.98;34.43
75013;BME280;63567;49.956;20.130;2023-03-24T11:58:28;96219.53;;;22.06;33.52
75013;BME280;63567;49.956;20.130;2023-03-24T12:01:03;96225.97;;;22.05;32.78
75013;BME280;63567;49.956;20.130;2023-03-24T12:09:09;96217.28;;;22.96;31.83
75013;BME280;63567;49.956;20.130;2023-03-24T12:14:38;96220.72;;;23.02;31.22
75013;BME280;63567;49.956;20.130;2023-03-24T12:17:15;96213.50;;;22.97;30.84
75013;BME280;63567;49.956;20.130;2023-03-24T12:38:54;96200.31;;;23.01;30.02
75013;BME280;63567;49.956;20.130;2023-03-24T12:49:49;96193.88;;;22.53;30.98
75013;BME280;63567;49.956;20.130;2023-03-24T12:52:45;96186.22;;;22.42;30.75
75013;BME280;63567;49.956;20.130;2023-03-24T12:58:03;96183.38;;;21.99;31.36
75013;BME280;63567;49.956;20.130;2023-03-24T13:00:33;96181.28;;;22.25;31.12
75013;BME280;63567;49.956;20.130;2023-03-24T13:03:04;96169.63;;;22.05;30.98
75013;BME280;63567;49.956;20.130;2023-03-24T13:05:32;96168.78;;;21.81;31.13
75013;BME280;63567;49.956;20.130;2023-03-24T13:08:04;96161.97;;;21.64;30.66
75013;BME280;63567;49.956;20.130;2023-03-24T13:10:35;96166.00;;;21.62;31.74
75013;BME280;63567;49.956;20.130;2023-03-24T13:13:24;96162.78;;;21.65;31.40
75013;BME280;63567;49.956;20.130;2023-03-24T13:15:59;96168.16;;;21.60;32.68
75013;BME280;63567;49.956;20.130;2023-03-24T13:18:32;96167.75;;;21.42;32.51
75013;BME280;63567;49.956;20.130;2023-03-24T13:21:09;96160.09;;;21.20;31.65
75013;BME280;63567;49.956;20.130;2023-03-24T13:23:41;96164.19;;;21.12;33.18
75013;BME280;63567;49.956;20.130;2023-03-24T13:26:15;96163.19;;;20.98;31.98
75013;BME280;63567;49.956;20.130;2023-03-24T13:28:53;96162.91;;;20.95;33.14
75013;BME280;63567;49.956;20.130;2023-03-24T13:31:23;96163.53;;;20.86;33.25
75013;BME280;63567;49.956;20.130;2023-03-24T13:33:51;96156.88;;;20.68;33.42
75013;BME280;63567;49.956;20.130;2023-03-24T13:36:33;96155.31;;;20.67;33.65
75013;BME280;63567;49.956;20.130;2023-03-24T13:39:04;96154.00;;;20.49;33.17
75013;BME280;63567;49.956;20.130;2023-03-24T13:41:32;96151.13;;;20.25;33.71
75013;BME280;63567;49.956;20.130;2023-03-24T13:44:01;96146.63;;;20.16;32.77
75013;BME280;63567;49.956;20.130;2023-03-24T13:46:28;96139.44;;;19.96;33.81
75013;BME280;63567;49.956;20.130;2023-03-24T13:48:55;96139.69;;;19.94;34.04
75013;BME280;63567;49.956;20.130;2023-03-24T13:51:25;96140.78;;;19.88;34.57
75013;BME280;63567;49.956;20.130;2023-03-24T13:53:55;96145.06;;;19.79;35.61
75013;BME280;63567;49.956;20.130;2023-03-24T13:59:13;96141.59;;;19.63;34.22
75013;BME280;63567;49.956;20.130;2023-03-24T14:02:09;96136.75;;;19.49;34.27
75013;BME280;63567;49.956;20.130;2023-03-24T14:05:04;96135.97;;;19.49;36.00
75013;BME280;63567;49.956;20.130;2023-03-24T14:12:54;96132.75;;;19.26;36.21
75013;BME280;63567;49.956;20.130;2023-03-24T14:15:29;96126.59;;;19.21;35.18
75013;BME280;63567;49.956;20.130;2023-03-24T14:21:04;96128.19;;;19.17;35.16
75013;BME280;63567;49.956;20.130;2023-03-24T14:23:59;96124.19;;;19.14;35.78
75013;BME280;63567;49.956;20.130;2023-03-24T14:26:30;96123.13;;;19.15;36.19
75013;BME280;63567;49.956;20.130;2023-03-24T14:28:58;96114.84;;;19.12;35.85
75013;BME280;63567;49.956;20.130;2023-03-24T14:31:32;96112.19;;;19.06;35.69
75013;BME280;63567;49.956;20.130;2023-03-24T14:36:36;96112.69;;;19.03;35.76
75013;BME280;63567;49.956;20.130;2023-03-24T14:39:26;96108.69;;;18.96;35.97
75013;BME280;63567;49.956;20.130;2023-03-24T14:41:55;96112.41;;;18.90;37.02
75013;BME280;63567;49.956;20.130;2023-03-24T14:47:09;96103.03;;;18.82;36.98
75013;BME280;63567;49.956;20.130;2023-03-24T14:49:35;96104.38;;;18.79;36.34
75013;BME280;63567;49.956;20.130;2023-03-24T14:52:11;96107.56;;;18.76;36.47
75013;BME280;63567;49.956;20.130;2023-03-24T14:54:48;96100.59;;;18.70;36.96
75013;BME280;63567;49.956;20.130;2023-03-24T14:57:28;96098.19;;;18.68;36.64
75013;BME280;63567;49.956;20.130;2023-03-24T15:00:05;96101.38;;;18.65;37.04
75013;BME280;63567;49.956;20.130;2023-03-24T15:02:41;96099.78;;;18.64;37.51
75013;BME280;63567;49.956;20.130;2023-03-24T15:07:45;96091.75;;;18.59;37.81
75013;BME280;63567;49.956;20.130;2023-03-24T15:10:21;96086.44;;;18.54;37.50
75013;BME280;63567;49.956;20.130;2023-03-24T15:12:48;96080.53;;;18.52;37.86
75013;BME280;63567;49.956;20.130;2023-03-24T15:15:18;96084.81;;;18.48;37.86
75013;BME280;63567;49.956;20.130;2023-03-24T15:17:46;96082.09;;;18.43;37.87
75013;BME280;63567;49.956;20.130;2023-03-24T15:20:33;96075.97;;;18.37;37.87